createdAt,value
2018-12-02T00:04:45.096Z,3.70
2018-12-02T00:09:40.482Z,3.80
2018-12-02T00:14:36.252Z,3.80
2018-12-02T00:19:31.815Z,3.90
2018-12-02T00:24:28.770Z,3.90
2018-12-02T00:29:23.490Z,4.00
2018-12-02T00:34:18.225Z,4.00
2018-12-02T00:39:13.185Z,3.90
2018-12-02T00:44:08.732Z,3.90
2018-12-02T00:49:03.960Z,3.90
2018-12-02T00:53:59.317Z,3.90
2018-12-02T00:58:54.452Z,3.80
2018-12-02T01:03:49.268Z,3.90
2018-12-02T01:08:44.421Z,3.90
2018-12-02T01:13:40.093Z,3.90
2018-12-02T01:18:36.345Z,3.80
2018-12-02T01:23:32.527Z,3.90
2018-12-02T01:28:27.204Z,3.90
2018-12-02T01:33:21.926Z,4.00
2018-12-02T01:38:18.809Z,4.00
2018-12-02T01:43:13.971Z,4.00
2018-12-02T01:48:09.982Z,4.10
2018-12-02T01:53:06.627Z,4.10
2018-12-02T01:58:01.314Z,4.10
2018-12-02T02:02:56.707Z,4.20
2018-12-02T02:07:51.489Z,4.20
2018-12-02T02:12:46.076Z,4.20
2018-12-02T02:17:41.515Z,4.30
2018-12-02T02:22:38.331Z,4.30
2018-12-02T02:27:33.659Z,4.40
2018-12-02T02:32:28.270Z,4.40
2018-12-02T02:37:23.392Z,4.40
2018-12-02T02:42:18.161Z,4.50
2018-12-02T02:47:13.179Z,4.50
2018-12-02T02:52:07.600Z,4.60
2018-12-02T02:57:02.962Z,4.60
2018-12-02T03:01:57.592Z,4.70
2018-12-02T03:06:52.367Z,4.80
2018-12-02T03:11:47.264Z,4.80
2018-12-02T03:16:43.828Z,4.90
2018-12-02T03:21:38.702Z,5.00
2018-12-02T03:26:34.263Z,5.00
2018-12-02T03:31:29.696Z,5.10
2018-12-02T03:36:25.120Z,5.10
2018-12-02T03:41:19.673Z,5.20
2018-12-02T03:46:15.334Z,5.20
2018-12-02T03:51:10.189Z,5.30
2018-12-02T03:56:08.471Z,5.30
2018-12-02T04:01:04.064Z,5.40
2018-12-02T04:06:00.322Z,5.40
2018-12-02T04:10:55.155Z,5.50
2018-12-02T04:15:51.281Z,5.60
2018-12-02T04:20:46.885Z,5.60
2018-12-02T04:25:42.549Z,5.60
2018-12-02T04:30:38.383Z,5.70
2018-12-02T04:35:33.837Z,5.70
2018-12-02T04:40:28.379Z,5.70
2018-12-02T04:45:23.690Z,5.70
2018-12-02T04:50:21.829Z,5.70
2018-12-02T04:55:16.711Z,5.70
2018-12-02T05:00:15.626Z,5.70
2018-12-02T05:05:13.116Z,5.60
2018-12-02T05:10:12.109Z,5.60
2018-12-02T05:15:08.033Z,5.50
2018-12-02T05:20:02.796Z,5.60
2018-12-02T05:25:00.180Z,5.60
2018-12-02T05:29:54.913Z,5.50
2018-12-02T05:34:50.368Z,5.50
2018-12-02T05:39:45.768Z,5.40
2018-12-02T05:44:40.553Z,5.40
2018-12-02T05:49:35.034Z,5.40
2018-12-02T05:54:29.903Z,5.50
2018-12-02T05:59:24.456Z,5.40
2018-12-02T06:04:26.660Z,5.50
2018-12-02T06:09:21.933Z,5.50
2018-12-02T06:14:16.471Z,5.60
2018-12-02T06:19:11.370Z,5.60
2018-12-02T06:24:06.395Z,5.60
2018-12-02T06:29:03.080Z,5.50
2018-12-02T06:33:57.669Z,5.50
2018-12-02T06:38:54.865Z,5.40
2018-12-02T06:43:49.591Z,5.40
2018-12-02T06:48:44.469Z,5.30
2018-12-02T06:53:39.120Z,5.30
2018-12-02T06:59:46.341Z,5.30
2018-12-02T07:04:43.326Z,5.30
2018-12-02T07:09:38.194Z,5.30
2018-12-02T07:14:33.114Z,5.30
2018-12-02T07:19:37.851Z,5.30
2018-12-02T07:24:37.553Z,5.20
2018-12-02T07:29:32.608Z,5.10
2018-12-02T07:34:27.532Z,5.10
2018-12-02T07:39:50.179Z,5.00
2018-12-02T07:44:45.256Z,4.90
2018-12-02T07:49:39.923Z,4.70
2018-12-02T07:54:34.445Z,4.70
2018-12-02T07:59:29.500Z,4.70
2018-12-02T08:04:26.932Z,4.80
2018-12-02T08:09:22.279Z,4.80
2018-12-02T08:14:18.190Z,4.80
2018-12-02T08:19:12.945Z,4.80
2018-12-02T08:24:07.793Z,4.60
2018-12-02T08:29:03.340Z,4.60
2018-12-02T08:33:58.127Z,4.60
2018-12-02T08:38:53.256Z,4.60
2018-12-02T08:43:48.611Z,4.60
2018-12-02T08:48:43.758Z,4.60
2018-12-02T08:53:39.017Z,4.60
2018-12-02T08:58:34.693Z,4.60
2018-12-02T09:03:29.893Z,4.60
2018-12-02T09:08:32.217Z,4.60
2018-12-02T09:13:35.117Z,4.60
2018-12-02T09:18:30.032Z,4.60
2018-12-02T09:23:25.408Z,4.50
2018-12-02T09:28:20.276Z,4.60
2018-12-02T09:33:16.013Z,4.50
2018-12-02T09:38:10.765Z,4.50
2018-12-02T09:43:07.276Z,4.60
2018-12-02T09:48:03.886Z,4.70
2018-12-02T09:52:58.344Z,4.80
2018-12-02T09:57:53.426Z,4.90
2018-12-02T10:02:48.359Z,4.90
2018-12-02T10:07:43.426Z,4.80
2018-12-02T10:12:39.434Z,4.90
2018-12-02T10:17:34.469Z,5.00
2018-12-02T10:22:30.033Z,5.00
2018-12-02T10:27:27.228Z,5.00
2018-12-02T10:32:22.156Z,5.00
2018-12-02T10:37:17.653Z,5.10
2018-12-02T10:42:14.065Z,5.20
2018-12-02T10:47:09.089Z,5.20
2018-12-02T10:52:06.477Z,5.20
2018-12-02T10:57:01.350Z,5.40
2018-12-02T11:02:01.061Z,5.40
2018-12-02T11:06:56.817Z,5.50
2018-12-02T11:11:52.565Z,5.60
2018-12-02T11:16:47.502Z,5.40
2018-12-02T11:21:43.107Z,5.40
2018-12-02T11:26:38.544Z,5.30
2018-12-02T11:31:33.446Z,5.30
2018-12-02T11:36:28.515Z,5.30
2018-12-02T11:41:23.684Z,5.20
2018-12-02T11:46:18.463Z,5.00
2018-12-02T11:51:13.478Z,4.70
2018-12-02T11:56:08.928Z,4.60
2018-12-02T12:01:04.707Z,4.50
2018-12-02T12:06:01.359Z,4.40
2018-12-02T12:10:56.419Z,4.40
2018-12-02T12:15:52.013Z,4.30
2018-12-02T12:20:46.865Z,4.20
2018-12-02T12:25:41.587Z,4.10
2018-12-02T12:30:37.417Z,4.10
2018-12-02T12:35:33.711Z,4.10
2018-12-02T12:40:31.664Z,4.10
2018-12-02T12:45:27.652Z,4.20
2018-12-02T12:50:22.227Z,4.20
2018-12-02T12:55:18.041Z,4.30
2018-12-02T13:00:21.494Z,4.40
2018-12-02T13:05:17.609Z,4.40
2018-12-02T13:10:13.397Z,4.50
2018-12-02T13:15:11.384Z,4.50
2018-12-02T13:20:14.090Z,4.50
2018-12-02T13:25:10.363Z,4.50
2018-12-02T13:30:09.559Z,4.60
2018-12-02T13:35:07.226Z,4.60
2018-12-02T13:40:02.897Z,4.70
2018-12-02T13:44:58.677Z,4.80
2018-12-02T13:49:53.563Z,4.90
2018-12-02T13:54:48.333Z,5.10
2018-12-02T13:59:44.686Z,5.20
2018-12-02T14:05:05.289Z,5.30
2018-12-02T14:10:11.921Z,5.30
2018-12-02T14:15:16.479Z,5.30
2018-12-02T14:20:12.042Z,5.30
2018-12-02T14:25:11.015Z,5.40
2018-12-02T14:30:08.112Z,5.40
2018-12-02T14:35:06.759Z,5.40
2018-12-02T14:40:03.961Z,5.40
2018-12-02T14:45:01.103Z,5.40
2018-12-02T14:49:57.061Z,5.50
2018-12-02T14:54:54.028Z,5.50
2018-12-02T14:59:48.685Z,5.60
2018-12-02T15:04:46.724Z,5.60
2018-12-02T15:09:41.843Z,5.60
2018-12-02T15:14:58.755Z,5.60
2018-12-02T15:19:54.489Z,5.60
2018-12-02T15:24:49.313Z,5.50
2018-12-02T15:29:44.465Z,5.50
2018-12-02T15:34:39.190Z,5.50
2018-12-02T15:39:34.810Z,5.40
2018-12-02T15:44:30.064Z,5.30
2018-12-02T15:49:24.793Z,5.40
2018-12-02T15:54:19.514Z,5.30
2018-12-02T15:59:14.374Z,5.30
2018-12-02T16:04:10.540Z,5.30
2018-12-02T16:09:05.976Z,5.30
2018-12-02T16:14:01.302Z,5.30
2018-12-02T16:18:56.135Z,5.30
2018-12-02T16:23:51.931Z,5.30
2018-12-02T16:28:46.901Z,5.40
2018-12-02T16:33:42.395Z,5.40
2018-12-02T16:38:37.278Z,5.50
2018-12-02T16:43:32.996Z,5.50
2018-12-02T16:48:28.053Z,5.50
2018-12-02T16:53:24.267Z,5.60
2018-12-02T16:58:26.708Z,5.60
2018-12-02T17:03:21.523Z,5.60
2018-12-02T17:08:16.197Z,5.70
2018-12-02T17:13:12.059Z,5.80
2018-12-02T17:18:08.328Z,5.80
2018-12-02T17:23:04.900Z,5.90
2018-12-02T17:28:00.517Z,5.90
2018-12-02T17:32:55.169Z,6.00
2018-12-02T17:37:49.932Z,6.10
2018-12-02T17:42:46.372Z,6.10
2018-12-02T17:47:41.124Z,6.20
2018-12-02T17:52:36.583Z,6.20
2018-12-02T17:57:32.599Z,6.30
2018-12-02T18:02:27.401Z,6.40
2018-12-02T18:07:22.108Z,6.40
2018-12-02T18:12:16.996Z,6.50
2018-12-02T18:17:11.961Z,6.60
2018-12-02T18:22:08.353Z,6.60
2018-12-02T18:27:04.270Z,6.60
2018-12-02T18:31:59.681Z,6.60
2018-12-02T18:36:55.657Z,6.70
2018-12-02T18:41:54.100Z,6.70
2018-12-02T18:46:49.144Z,6.70
2018-12-02T18:51:43.938Z,6.80
2018-12-02T18:56:38.834Z,6.80
2018-12-02T19:01:34.364Z,6.80
2018-12-02T19:06:30.237Z,6.90
2018-12-02T19:11:24.935Z,6.90
2018-12-02T19:16:20.142Z,7.00
2018-12-02T19:21:19.706Z,7.00
2018-12-02T19:26:15.237Z,7.10
2018-12-02T19:31:12.158Z,7.10
2018-12-02T19:36:15.069Z,7.20
2018-12-02T19:41:09.716Z,7.20
2018-12-02T19:46:06.053Z,7.30
2018-12-02T19:51:04.129Z,7.30
2018-12-02T19:55:59.384Z,7.40
2018-12-02T20:00:53.947Z,7.40
2018-12-02T20:05:49.564Z,7.40
2018-12-02T20:10:48.584Z,7.50
2018-12-02T20:15:50.334Z,7.40
2018-12-02T20:20:50.446Z,7.40
2018-12-02T20:25:47.336Z,7.40
2018-12-02T20:30:42.193Z,7.40
2018-12-02T20:35:37.032Z,7.40
2018-12-02T20:40:33.174Z,7.40
2018-12-02T20:45:27.976Z,7.30
2018-12-02T20:50:23.625Z,7.20
2018-12-02T20:55:20.335Z,7.10
2018-12-02T21:00:16.195Z,7.10
2018-12-02T21:05:15.176Z,7.10
2018-12-02T21:10:11.551Z,7.00
2018-12-02T21:15:10.640Z,7.00
2018-12-02T21:20:07.008Z,6.90
2018-12-02T21:25:01.948Z,6.80
2018-12-02T21:29:56.989Z,6.70
2018-12-02T21:34:51.720Z,6.70
2018-12-02T21:39:48.355Z,6.70
2018-12-02T21:44:44.331Z,6.70
2018-12-02T21:49:38.972Z,6.60
2018-12-02T21:54:33.887Z,6.60
2018-12-02T21:59:28.691Z,6.60
2018-12-02T22:04:23.240Z,6.60
2018-12-02T22:09:19.218Z,6.70
2018-12-02T22:14:14.253Z,6.80
2018-12-02T22:19:09.442Z,6.80
2018-12-02T22:24:04.653Z,6.70
2018-12-02T22:29:00.841Z,6.70
2018-12-02T22:33:56.394Z,6.70
2018-12-02T22:38:51.956Z,6.70
2018-12-02T22:43:46.580Z,6.80
2018-12-02T22:48:43.603Z,6.80
2018-12-02T22:53:38.367Z,6.80
2018-12-02T22:58:33.478Z,6.70
2018-12-02T23:03:28.695Z,6.70
2018-12-02T23:08:23.493Z,6.70
2018-12-02T23:13:18.197Z,6.70
2018-12-02T23:18:14.908Z,6.70
2018-12-02T23:23:09.992Z,6.60
2018-12-02T23:28:07.801Z,6.70
2018-12-02T23:33:08.181Z,6.70
2018-12-02T23:38:04.294Z,6.70
2018-12-02T23:42:59.282Z,6.70
2018-12-02T23:47:54.350Z,6.70
2018-12-02T23:52:51.266Z,6.70
2018-12-02T23:57:46.460Z,6.70
